createdAt,value
2023-02-21T03:08:19.202Z,25.76
2023-02-21T03:09:19.230Z,25.74
2023-02-21T03:10:19.237Z,25.74
2023-02-21T03:11:19.230Z,25.73
2023-02-21T03:12:19.262Z,25.71
2023-02-21T03:13:19.265Z,25.74
2023-02-21T03:14:19.306Z,25.74
2023-02-21T03:15:19.360Z,25.76
2023-02-21T03:16:19.434Z,25.73
2023-02-21T03:17:19.368Z,25.74
2023-02-21T03:18:19.391Z,25.76
2023-02-21T03:19:19.416Z,25.74
2023-02-21T03:20:19.447Z,25.74
2023-02-21T03:21:19.506Z,25.74
2023-02-21T03:22:19.508Z,25.73
2023-02-21T03:23:19.509Z,25.74
2023-02-21T03:24:19.531Z,25.73
2023-02-21T03:25:19.579Z,25.71
2023-02-21T03:26:19.631Z,25.68
2023-02-21T03:27:19.646Z,25.66
2023-02-21T03:28:19.693Z,25.63
2023-02-21T03:29:19.694Z,25.61
2023-02-21T03:31:19.811Z,25.59
2023-02-21T03:32:19.827Z,25.59
2023-02-21T03:33:19.862Z,25.57
2023-02-21T03:34:19.912Z,25.56
2023-02-21T03:35:19.928Z,25.54
2023-02-21T03:36:20.015Z,25.54
2023-02-21T03:37:20.017Z,25.53
2023-02-21T03:38:20.043Z,25.53
2023-02-21T03:39:20.089Z,25.50
2023-02-21T03:40:20.215Z,25.53
2023-02-21T03:41:20.143Z,25.53
2023-02-21T03:42:20.176Z,25.54
2023-02-21T03:43:20.220Z,25.53
2023-02-21T03:44:20.266Z,25.51
2023-02-21T03:45:20.313Z,25.51
2023-02-21T03:46:20.412Z,25.53
2023-02-21T03:47:20.410Z,25.54
2023-02-21T03:48:31.091Z,25.54
2023-02-21T03:50:20.555Z,25.57
2023-02-21T03:51:20.532Z,25.54
2023-02-21T03:52:20.509Z,25.57
2023-02-21T03:53:20.536Z,25.59
2023-02-21T03:54:20.549Z,25.59
2023-02-21T03:55:20.554Z,25.60
2023-02-21T03:56:21.777Z,25.59
2023-02-21T03:57:20.559Z,25.61
2023-02-21T03:58:20.655Z,25.60
2023-02-21T03:59:20.718Z,25.61
2023-02-21T04:00:20.662Z,25.63
2023-02-21T04:01:20.733Z,25.63
2023-02-21T04:02:20.672Z,25.63
2023-02-21T04:03:20.724Z,25.64
2023-02-21T04:04:20.726Z,25.64
2023-02-21T04:05:20.783Z,25.63
2023-02-21T04:06:20.780Z,25.61
2023-02-21T04:07:20.806Z,25.67
2023-02-21T04:55:22.076Z,25.76
2023-02-21T04:56:22.087Z,25.78
2023-02-21T04:57:22.085Z,25.80
2023-02-21T04:58:22.087Z,25.80
2023-02-21T04:59:22.108Z,25.83
2023-02-21T05:00:22.129Z,25.81
2023-02-21T05:01:22.230Z,25.83
2023-02-21T05:02:22.165Z,25.83
2023-02-21T05:03:22.163Z,25.83
2023-02-21T05:04:22.207Z,25.84
2023-02-21T05:05:22.236Z,25.84
2023-02-21T05:06:22.271Z,25.85
2023-02-21T05:07:22.300Z,25.85
2023-02-21T05:08:25.536Z,25.88
2023-02-21T05:09:22.308Z,25.88
2023-02-21T05:10:22.340Z,25.90
2023-02-21T05:11:22.332Z,25.90
2023-02-21T05:12:22.373Z,25.91
2023-02-21T05:13:22.389Z,25.88
2023-02-21T05:14:22.375Z,25.92
2023-02-21T05:15:22.391Z,25.91
2023-02-21T05:16:22.458Z,25.91
2023-02-21T05:17:22.425Z,25.94
2023-02-21T05:18:22.447Z,25.94
2023-02-21T05:19:22.460Z,25.92
2023-02-21T05:20:22.437Z,25.91
2023-02-21T05:21:22.464Z,25.92
2023-02-21T05:22:22.477Z,25.95
2023-02-21T05:23:22.494Z,25.94
2023-02-21T05:24:22.529Z,25.95
2023-02-21T05:25:22.501Z,25.97
2023-02-21T05:26:22.535Z,25.95
2023-02-21T05:27:22.525Z,25.95
2023-02-21T05:28:22.519Z,25.97
2023-02-21T05:29:22.535Z,25.97
2023-02-21T05:30:22.631Z,25.97
2023-02-21T05:31:22.606Z,26.00
2023-02-21T05:32:22.626Z,25.97
2023-02-21T05:33:22.549Z,25.98
2023-02-21T05:34:22.624Z,25.98
2023-02-21T05:35:22.593Z,26.00
2023-02-21T05:36:22.637Z,26.00
2023-02-21T05:37:22.650Z,26.00
2023-02-21T05:38:22.654Z,26.02
2023-02-21T05:39:22.689Z,26.01
2023-02-21T05:40:22.673Z,26.01
2023-02-21T05:41:22.709Z,26.02
2023-02-21T05:42:22.722Z,26.04
2023-02-21T05:52:22.744Z,26.02
2023-02-21T05:58:22.786Z,25.92
2023-02-21T05:59:22.812Z,25.90
2023-02-21T06:00:22.837Z,25.87
2023-02-21T06:01:29.861Z,25.88
2023-02-21T06:02:22.895Z,25.85
2023-02-21T06:03:22.907Z,25.84
2023-02-21T06:04:22.856Z,25.84
2023-02-21T06:05:22.870Z,25.84
2023-02-21T06:06:22.880Z,25.83
2023-02-21T06:07:22.911Z,25.87
2023-02-21T06:08:22.886Z,25.85
2023-02-21T06:09:22.954Z,25.87
2023-02-21T06:10:22.941Z,25.88
2023-02-21T06:11:22.915Z,25.91
2023-02-21T06:12:22.941Z,25.90
2023-02-21T06:13:22.932Z,25.92
2023-02-21T06:14:22.938Z,25.92
2023-02-21T06:15:22.933Z,25.94
2023-02-21T06:16:22.978Z,25.92
2023-02-21T06:17:22.994Z,25.95
2023-02-21T06:18:22.975Z,25.95
2023-02-21T06:19:22.969Z,25.98
2023-02-21T06:20:22.992Z,25.97
2023-02-21T06:21:22.971Z,25.98
2023-02-21T06:22:23.035Z,26.00
2023-02-21T06:23:23.011Z,26.01
2023-02-21T06:24:22.989Z,26.01
2023-02-21T06:25:22.997Z,26.00
2023-02-21T06:26:22.996Z,26.02
2023-02-21T06:27:23.010Z,26.01
2023-02-21T06:28:23.012Z,26.02
2023-02-21T06:29:23.045Z,26.04
2023-02-21T06:30:23.332Z,26.04
2023-02-21T06:31:23.106Z,26.05
2023-02-21T06:32:23.407Z,26.04
2023-02-21T06:33:23.075Z,26.02
2023-02-21T06:34:23.182Z,26.02
2023-02-21T06:35:23.092Z,26.02
2023-02-21T06:36:23.082Z,26.00
2023-02-21T06:37:23.453Z,26.00
2023-02-21T06:38:23.117Z,26.01
2023-02-21T06:39:23.077Z,26.00
2023-02-21T06:40:23.100Z,26.01
2023-02-21T06:41:23.111Z,25.97
2023-02-21T06:42:23.582Z,25.97
2023-02-21T06:43:23.206Z,25.97
2023-02-21T06:44:23.141Z,25.95
2023-02-21T06:45:23.160Z,25.94
2023-02-21T06:46:23.238Z,25.92
2023-02-21T06:47:23.466Z,25.94
2023-02-21T06:48:23.160Z,25.95
2023-02-21T06:49:23.179Z,26.02
2023-02-21T06:50:23.147Z,26.07
2023-02-21T06:51:23.171Z,26.09
2023-02-21T06:52:23.209Z,26.11
2023-02-21T06:53:23.195Z,26.11
2023-02-21T06:54:23.200Z,26.17
2023-02-21T06:55:25.424Z,26.17
2023-02-21T06:56:23.367Z,26.17
2023-02-21T06:57:23.439Z,26.17
2023-02-21T06:58:23.926Z,26.18
2023-02-21T06:59:23.556Z,26.21
2023-02-21T07:00:23.651Z,26.19
2023-02-21T07:01:23.775Z,26.24
2023-02-21T07:02:23.722Z,26.25
2023-02-21T07:03:23.928Z,26.28
2023-02-21T07:04:23.910Z,26.34
2023-02-21T07:05:23.906Z,26.36
2023-02-21T07:06:23.947Z,26.39
2023-02-21T07:07:24.032Z,26.42
2023-02-21T07:08:24.439Z,26.45
2023-02-21T07:09:24.112Z,26.50
2023-02-21T07:10:24.160Z,26.56
2023-02-21T07:11:24.226Z,26.59
2023-02-21T07:12:24.258Z,26.58
2023-02-21T07:13:24.292Z,26.60
2023-02-21T07:14:24.313Z,26.66
2023-02-21T07:15:24.359Z,26.70
2023-02-21T07:19:24.493Z,26.78
2023-02-21T07:21:24.518Z,26.79
2023-02-21T07:22:24.568Z,26.79
2023-02-21T07:23:24.992Z,26.76
2023-02-21T07:32:24.951Z,26.76
2023-02-21T07:33:25.417Z,26.78
2023-02-21T07:35:25.024Z,26.82
2023-02-21T07:36:25.043Z,26.82
2023-02-21T07:37:25.110Z,26.83
2023-02-21T07:38:25.501Z,26.85
2023-02-21T07:39:25.107Z,26.78
2023-02-21T07:40:25.139Z,26.78
2023-02-21T07:41:25.162Z,26.79
2023-02-21T07:42:25.184Z,26.78
2023-02-21T07:43:25.433Z,26.79
2023-02-21T07:44:25.254Z,26.80
2023-02-21T07:45:25.254Z,26.83
2023-02-21T07:46:25.270Z,26.83
2023-02-21T07:47:25.260Z,26.82
2023-02-21T07:48:25.482Z,26.83
2023-02-21T07:49:25.319Z,26.90
2023-02-21T07:50:25.304Z,26.90
2023-02-21T07:51:25.294Z,26.93
2023-02-21T07:52:25.323Z,26.97
2023-02-21T07:53:25.303Z,27.01
2023-02-21T07:54:25.298Z,27.06
2023-02-21T07:55:25.347Z,27.06
2023-02-21T07:56:25.313Z,27.07
2023-02-21T07:57:25.336Z,27.10
2023-02-21T07:58:25.348Z,27.14
2023-02-21T07:59:25.342Z,27.15
2023-02-21T08:00:25.391Z,27.23
2023-02-21T08:01:25.414Z,27.20
2023-02-21T08:02:25.362Z,27.18
2023-02-21T08:03:25.400Z,27.17
2023-02-21T08:04:25.532Z,27.14
2023-02-21T08:05:25.390Z,27.07
2023-02-21T08:06:25.420Z,27.07
2023-02-21T08:07:25.476Z,27.00
2023-02-21T08:08:25.477Z,26.97
2023-02-21T08:09:25.546Z,26.96
2023-02-21T08:10:25.722Z,26.99
2023-02-21T08:11:25.631Z,27.00
2023-02-21T08:12:25.640Z,27.03
2023-02-21T08:13:25.670Z,27.07
2023-02-21T08:14:25.692Z,27.06
2023-02-21T08:15:25.701Z,27.11
2023-02-21T08:16:25.830Z,27.10
2023-02-21T08:17:25.705Z,27.13
2023-02-21T08:18:25.749Z,27.13
2023-02-21T08:19:25.742Z,27.17
2023-02-21T08:20:25.799Z,27.17
2023-02-21T08:21:25.716Z,27.18
2023-02-21T08:22:25.743Z,27.20
2023-02-21T08:23:25.751Z,27.21
2023-02-21T08:24:25.773Z,27.24
2023-02-21T08:25:25.822Z,27.23
2023-02-21T08:26:25.830Z,27.29
2023-02-21T08:27:25.856Z,27.30
2023-02-21T08:28:25.980Z,27.33
2023-02-21T08:29:25.954Z,27.33
2023-02-21T08:30:26.123Z,27.33
2023-02-21T08:32:26.166Z,27.37
2023-02-21T08:34:26.186Z,27.29
2023-02-21T08:35:26.240Z,27.29
2023-02-21T08:36:26.247Z,27.26
2023-02-21T08:37:26.280Z,27.26
2023-02-21T08:38:26.234Z,27.18
2023-02-21T08:39:26.261Z,27.17
2023-02-21T08:40:26.295Z,27.09
2023-02-21T08:41:26.275Z,27.06
2023-02-21T08:42:26.324Z,27.00
2023-02-21T08:43:26.492Z,26.94
2023-02-21T08:44:26.362Z,26.89
2023-02-21T08:45:26.442Z,26.91
2023-02-21T08:46:26.447Z,26.87
2023-02-21T08:47:26.430Z,26.89
2023-02-21T08:48:26.458Z,26.89
2023-02-21T08:49:26.453Z,26.89
2023-02-21T08:50:26.526Z,26.90
2023-02-21T08:51:26.520Z,26.89
2023-02-21T08:52:26.543Z,26.87
2023-02-21T08:53:27.004Z,26.90
2023-02-21T08:54:26.590Z,26.90
2023-02-21T08:55:26.588Z,26.86
2023-02-21T08:56:26.610Z,26.87
2023-02-21T08:57:26.657Z,26.85
2023-02-21T08:58:26.667Z,26.86
2023-02-21T08:59:26.752Z,26.90
2023-02-21T09:00:26.676Z,26.91
2023-02-21T09:01:26.719Z,26.96
2023-02-21T09:02:26.824Z,26.97
2023-02-21T09:03:26.731Z,26.99
2023-02-21T09:04:26.967Z,27.00
2023-02-21T09:05:26.744Z,27.04
2023-02-21T09:06:26.778Z,27.04
2023-02-21T09:07:26.767Z,27.01
2023-02-21T09:08:26.758Z,27.03
2023-02-21T09:09:26.795Z,27.03
2023-02-21T09:10:26.816Z,27.03
2023-02-21T09:11:26.790Z,26.96
2023-02-21T09:12:26.805Z,27.01
2023-02-21T09:13:26.816Z,27.03
2023-02-21T09:14:26.985Z,27.06
2023-02-21T09:15:26.812Z,27.03
2023-02-21T09:16:26.889Z,27.07
2023-02-21T09:17:26.817Z,27.07
2023-02-21T09:18:26.847Z,27.09
2023-02-21T09:19:26.853Z,27.09
2023-02-21T09:20:26.893Z,27.13
2023-02-21T09:21:26.869Z,27.14
2023-02-21T09:22:26.861Z,27.14
2023-02-21T09:23:26.883Z,27.15
2023-02-21T09:24:26.995Z,27.18
2023-02-21T09:25:26.906Z,27.21
2023-02-21T09:26:26.907Z,27.20
2023-02-21T09:27:26.920Z,27.23
2023-02-21T09:28:26.912Z,27.23
2023-02-21T09:30:27.428Z,27.27
2023-02-21T09:31:26.933Z,27.27
2023-02-21T09:32:26.981Z,27.30
2023-02-21T09:35:26.954Z,27.30
2023-02-21T09:44:27.521Z,27.23
2023-02-21T09:45:27.065Z,27.18
2023-02-21T09:50:27.137Z,27.00
2023-02-21T09:51:27.156Z,27.00
2023-02-21T09:52:27.171Z,27.00
2023-02-21T09:53:27.201Z,26.96
2023-02-21T09:54:27.253Z,26.94
2023-02-21T09:55:29.118Z,26.96
2023-02-21T09:56:27.257Z,26.94
2023-02-21T09:57:27.254Z,26.93
2023-02-21T09:58:27.239Z,26.89
2023-02-21T09:59:27.253Z,26.85
2023-02-21T10:00:27.256Z,26.83
2023-02-21T10:01:27.286Z,26.80
2023-02-21T10:04:27.581Z,26.70
2023-02-21T10:05:27.255Z,26.66
2023-02-21T10:06:27.299Z,26.66
2023-02-21T10:07:27.287Z,26.59
2023-02-21T10:08:27.382Z,26.60
2023-02-21T10:09:27.318Z,26.60
2023-02-21T10:10:27.332Z,26.63
2023-02-21T10:11:27.310Z,26.62
2023-02-21T10:12:27.311Z,26.64
2023-02-21T10:13:27.306Z,26.68
2023-02-21T10:14:27.388Z,26.69
2023-02-21T10:15:27.317Z,26.73
2023-02-21T10:17:27.353Z,26.80
2023-02-21T10:18:27.316Z,26.86
2023-02-21T10:19:27.315Z,26.90
2023-02-21T10:20:27.527Z,26.94
2023-02-21T10:21:27.290Z,26.99
2023-02-21T10:22:27.354Z,27.04
2023-02-21T10:23:27.307Z,27.09
2023-02-21T10:24:27.356Z,27.11
2023-02-21T10:25:27.570Z,27.15
2023-02-21T10:26:27.342Z,27.20
2023-02-21T10:27:27.309Z,27.21
2023-02-21T10:28:27.303Z,27.23
2023-02-21T10:29:27.301Z,27.27
2023-02-21T10:30:27.385Z,27.29
2023-02-21T10:31:27.394Z,27.31
2023-02-21T10:32:27.279Z,27.33
2023-02-21T10:33:27.279Z,27.38
2023-02-21T10:34:27.290Z,27.37
2023-02-21T10:36:27.254Z,27.38
2023-02-21T10:37:27.306Z,27.38
2023-02-21T10:38:27.244Z,27.38
2023-02-21T10:39:27.257Z,27.40
2023-02-21T10:40:27.538Z,27.41
2023-02-21T10:42:27.212Z,27.41
2023-02-21T10:43:27.181Z,27.34
2023-02-21T10:44:27.178Z,27.31
2023-02-21T10:46:27.241Z,27.29
2023-02-21T10:47:27.163Z,27.24
2023-02-21T10:48:27.138Z,27.24
2023-02-21T10:49:27.145Z,27.26
2023-02-21T10:50:27.166Z,27.26
2023-02-21T10:51:27.146Z,27.26
2023-02-21T10:52:27.128Z,27.24
2023-02-21T10:54:27.138Z,27.11
2023-02-21T10:56:27.129Z,26.82
2023-02-21T10:57:27.140Z,26.80
2023-02-21T10:58:27.114Z,26.60
2023-02-21T10:59:27.126Z,26.69
2023-02-21T11:05:27.160Z,26.80
2023-02-21T11:11:27.122Z,26.72
2023-02-21T11:12:27.178Z,26.76
2023-02-21T11:13:27.116Z,26.75
2023-02-21T11:14:27.138Z,26.73
2023-02-21T11:15:27.117Z,26.82
2023-02-21T11:16:27.146Z,26.83
2023-02-21T11:17:27.112Z,26.87
2023-02-21T11:18:27.145Z,26.89
2023-02-21T11:19:27.097Z,26.90
2023-02-21T11:20:27.115Z,26.87
2023-02-21T11:21:27.559Z,26.86
2023-02-21T11:22:27.115Z,26.87
2023-02-21T11:23:27.118Z,26.86
2023-02-21T11:24:27.156Z,26.89
2023-02-21T11:25:27.105Z,26.89
2023-02-21T11:26:27.123Z,26.91
2023-02-21T11:27:27.085Z,26.94
2023-02-21T11:28:27.108Z,26.93
2023-02-21T11:29:27.104Z,26.87
2023-02-21T11:30:27.103Z,26.91
2023-02-21T11:31:27.152Z,26.93
2023-02-21T11:32:27.102Z,26.94
2023-02-21T11:33:27.087Z,26.94
2023-02-21T11:34:27.072Z,26.90
2023-02-21T11:35:27.070Z,26.90
2023-02-21T11:36:27.606Z,26.93
2023-02-21T11:37:27.085Z,26.96
2023-02-21T11:38:28.480Z,26.97
2023-02-21T11:39:27.123Z,27.06
2023-02-21T11:40:27.127Z,27.04
2023-02-21T11:41:27.582Z,27.10
2023-02-21T11:42:27.134Z,27.13
2023-02-21T11:43:27.138Z,27.14
2023-02-21T11:44:27.124Z,27.17
2023-02-21T11:45:27.146Z,27.20
2023-02-21T11:46:27.666Z,27.23
2023-02-21T11:47:27.157Z,27.27
2023-02-21T11:50:27.242Z,27.33
2023-02-21T11:51:27.598Z,27.38
2023-02-21T11:52:27.276Z,27.37
2023-02-21T11:53:27.262Z,27.41
2023-02-21T11:54:27.295Z,27.42
2023-02-21T11:55:27.336Z,27.44
2023-02-21T11:56:27.356Z,27.48
2023-02-21T11:57:27.354Z,27.48
2023-02-21T11:58:27.356Z,27.50
2023-02-21T11:59:27.385Z,27.52
2023-02-21T12:00:27.427Z,27.54
2023-02-21T12:01:27.502Z,27.51
2023-02-21T12:02:27.602Z,27.55
2023-02-21T12:03:27.583Z,27.54
2023-02-21T12:04:27.649Z,27.58
2023-02-21T12:05:27.677Z,27.58
2023-02-21T12:06:28.125Z,27.58
2023-02-21T12:07:27.751Z,27.58
2023-02-21T12:08:27.765Z,27.60
2023-02-21T12:09:27.846Z,27.62
2023-02-21T12:10:27.856Z,27.61
2023-02-21T12:11:27.982Z,27.62
2023-02-21T12:12:27.965Z,27.62
2023-02-21T12:13:27.995Z,27.64
2023-02-21T12:14:28.052Z,27.65
2023-02-21T12:15:28.095Z,27.65
2023-02-21T12:16:28.115Z,27.66
2023-02-21T12:17:28.173Z,27.65
2023-02-21T12:18:28.222Z,27.69
2023-02-21T12:19:28.249Z,27.66
2023-02-21T12:20:28.256Z,27.68
2023-02-21T12:21:28.288Z,27.68
2023-02-21T12:22:28.369Z,27.69
2023-02-21T12:23:28.365Z,27.68
2023-02-21T12:24:28.439Z,27.66
2023-02-21T12:25:28.448Z,27.66
2023-02-21T12:26:28.501Z,27.66
2023-02-21T12:27:28.570Z,27.66
2023-02-21T12:28:28.541Z,27.71
2023-02-21T12:29:28.631Z,27.72
2023-02-21T12:40:28.981Z,27.82
2023-02-21T12:41:28.982Z,27.81
2023-02-21T12:42:29.041Z,27.82
2023-02-21T12:43:29.103Z,27.84
2023-02-21T12:44:29.162Z,27.85
2023-02-21T12:45:29.182Z,27.85
2023-02-21T12:46:29.263Z,27.85
2023-02-21T12:47:29.259Z,27.82
2023-02-21T12:48:29.319Z,27.82
2023-02-21T12:49:29.340Z,27.80
2023-02-21T12:50:30.845Z,27.82
2023-02-21T12:51:29.439Z,27.80
2023-02-21T12:54:29.567Z,27.75
2023-02-21T12:55:29.632Z,27.75
2023-02-21T12:56:29.686Z,27.75
2023-02-21T12:57:29.739Z,27.73
2023-02-21T12:58:29.806Z,27.71
2023-02-21T12:59:29.832Z,27.72
2023-02-21T13:00:29.879Z,27.71
2023-02-21T13:01:29.965Z,27.71
2023-02-21T13:02:30.019Z,27.68
2023-02-21T13:03:30.045Z,27.65
2023-02-21T13:04:30.098Z,27.64
2023-02-21T13:05:30.111Z,27.62
2023-02-21T13:06:31.572Z,27.61
2023-02-21T13:07:30.218Z,27.61
2023-02-21T13:08:30.269Z,27.57
2023-02-21T13:09:30.279Z,27.57
2023-02-21T13:10:30.314Z,27.58
2023-02-21T13:11:30.346Z,27.55
2023-02-21T13:12:30.401Z,27.55
2023-02-21T13:13:30.447Z,27.52
2023-02-21T13:14:30.458Z,27.50
2023-02-21T13:15:30.505Z,27.54
2023-02-21T13:16:30.639Z,27.52
2023-02-21T13:17:30.597Z,27.51
2023-02-21T13:18:30.631Z,27.48
2023-02-21T13:19:30.652Z,27.48
2023-02-21T13:20:30.672Z,27.47
2023-02-21T13:21:30.660Z,27.50
2023-02-21T13:22:30.728Z,27.48
2023-02-21T13:23:30.788Z,27.48
2023-02-21T13:24:30.801Z,27.47
2023-02-21T13:25:30.858Z,27.48
2023-02-21T13:26:30.897Z,27.47
2023-02-21T13:27:30.899Z,27.47
2023-02-21T13:28:30.920Z,27.45
2023-02-21T13:29:30.944Z,27.45
2023-02-21T13:30:31.074Z,27.48
2023-02-21T13:32:31.021Z,27.44
2023-02-21T13:33:31.072Z,27.44
2023-02-21T13:34:31.096Z,27.45
2023-02-21T13:35:31.134Z,27.44
2023-02-21T13:36:31.100Z,27.45
2023-02-21T13:37:31.187Z,27.44
2023-02-21T13:38:31.126Z,27.44
2023-02-21T13:39:31.158Z,27.44
2023-02-21T13:40:31.137Z,27.42
2023-02-21T13:41:31.142Z,27.44
2023-02-21T13:42:31.139Z,27.41
2023-02-21T13:43:31.185Z,27.42
2023-02-21T13:44:31.133Z,27.42
2023-02-21T13:45:31.138Z,27.42
2023-02-21T13:46:31.203Z,27.41
2023-02-21T13:47:31.112Z,27.41
2023-02-21T13:48:31.148Z,27.41
2023-02-21T13:49:31.168Z,27.41
2023-02-21T13:50:31.171Z,27.41
2023-02-21T13:51:31.167Z,27.37
2023-02-21T13:52:31.131Z,27.40
2023-02-21T13:53:31.142Z,27.40
2023-02-21T13:54:31.160Z,27.37
2023-02-21T13:55:31.165Z,27.41
2023-02-21T13:56:31.151Z,27.38
2023-02-21T13:57:31.135Z,27.40
2023-02-21T13:58:31.134Z,27.36
2023-02-21T13:59:31.140Z,27.38
2023-02-21T14:00:31.140Z,27.37
2023-02-21T14:01:31.146Z,27.37
2023-02-21T14:02:31.174Z,27.37
2023-02-21T14:03:31.124Z,27.37
2023-02-21T14:04:31.136Z,27.37
2023-02-21T14:05:31.121Z,27.37
2023-02-21T14:06:31.150Z,27.36
2023-02-21T14:07:31.183Z,27.37
2023-02-21T14:08:31.193Z,27.36
2023-02-21T14:09:31.192Z,27.36
2023-02-21T14:10:31.193Z,27.36
2023-02-21T14:11:31.221Z,27.34
2023-02-21T14:12:31.203Z,27.36
2023-02-21T14:53:31.294Z,27.24
2023-02-21T14:54:31.284Z,27.24
2023-02-21T14:55:31.280Z,27.24
2023-02-21T14:56:31.282Z,27.26
2023-02-21T14:57:31.295Z,27.24
2023-02-21T14:58:31.296Z,27.24
2023-02-21T14:59:31.311Z,27.24
2023-02-21T15:00:31.300Z,27.23
2023-02-21T15:01:31.338Z,27.24
2023-02-21T15:02:31.271Z,27.24
2023-02-21T15:03:31.326Z,27.21
2023-02-21T15:04:31.315Z,27.24
2023-02-21T15:05:31.325Z,27.26
2023-02-21T15:06:31.299Z,27.24
2023-02-21T15:07:31.289Z,27.23
2023-02-21T15:08:31.286Z,27.23
2023-02-21T15:09:31.321Z,27.21
2023-02-21T15:10:31.291Z,27.23
2023-02-21T15:11:31.335Z,27.23
2023-02-21T15:12:31.329Z,27.23
2023-02-21T15:13:31.330Z,27.21
2023-02-21T15:14:31.339Z,27.23
2023-02-21T15:15:31.352Z,27.23
2023-02-21T15:16:31.358Z,27.23
2023-02-21T15:17:31.345Z,27.20
2023-02-21T15:18:31.409Z,27.21
2023-02-21T15:19:31.377Z,27.20
2023-02-21T15:20:31.370Z,27.23
2023-02-21T15:21:31.399Z,27.18
2023-02-21T15:22:31.402Z,27.20
2023-02-21T15:23:31.378Z,27.18
2023-02-21T15:24:31.394Z,27.18
2023-02-21T15:25:31.407Z,27.18
2023-02-21T15:26:31.414Z,27.21
2023-02-21T15:27:31.406Z,27.20
2023-02-21T15:28:31.422Z,27.20
2023-02-21T15:29:31.386Z,27.20
2023-02-21T15:30:31.544Z,27.20
2023-02-21T15:31:31.467Z,27.20
2023-02-21T15:32:31.436Z,27.18
2023-02-21T15:33:31.423Z,27.18
2023-02-21T15:34:31.420Z,27.20
2023-02-21T15:35:31.465Z,27.18
2023-02-21T15:36:31.440Z,27.20
2023-02-21T15:37:31.455Z,27.18
2023-02-21T15:38:31.452Z,27.17
2023-02-21T15:39:31.432Z,27.17
2023-02-21T15:40:31.422Z,27.15
2023-02-21T15:41:31.453Z,27.17
2023-02-21T15:42:31.492Z,27.17
2023-02-21T15:43:31.479Z,27.15
2023-02-21T15:44:31.523Z,27.17
2023-02-21T15:45:31.499Z,27.15
2023-02-21T15:46:31.508Z,27.18
2023-02-21T15:47:31.509Z,27.15
2023-02-21T15:48:31.562Z,27.15
2023-02-21T15:49:31.563Z,27.15
2023-02-21T15:50:31.693Z,27.15
2023-02-21T15:51:31.579Z,27.15
2023-02-21T15:52:31.584Z,27.15
2023-02-21T15:53:31.589Z,27.14
2023-02-21T15:54:31.612Z,27.14
2023-02-21T15:55:31.646Z,27.14
2023-02-21T15:56:31.677Z,27.13
2023-02-21T15:57:31.658Z,27.14
2023-02-21T15:58:31.699Z,27.14
2023-02-21T15:59:31.695Z,27.13
2023-02-21T16:00:31.780Z,27.13
2023-02-21T16:01:31.794Z,27.13
2023-02-21T16:02:32.539Z,27.13
2023-02-21T16:03:31.789Z,27.13
2023-02-21T16:04:31.758Z,27.13
2023-02-21T16:05:31.767Z,27.13
2023-02-21T16:06:31.784Z,27.11
2023-02-21T16:07:31.788Z,27.13
2023-02-21T16:08:31.793Z,27.11
2023-02-21T16:09:31.806Z,27.10
2023-02-21T16:10:31.822Z,27.10
2023-02-21T16:11:31.837Z,27.09
2023-02-21T16:12:31.866Z,27.09
2023-02-21T16:13:31.903Z,27.09
2023-02-21T16:14:31.911Z,27.09
2023-02-21T16:15:31.919Z,27.07
2023-02-21T16:16:31.923Z,27.09
2023-02-21T16:17:31.901Z,27.09
2023-02-21T16:18:31.930Z,27.07
2023-02-21T16:19:31.952Z,27.07
2023-02-21T16:20:31.945Z,27.09
2023-02-21T16:21:31.964Z,27.07
2023-02-21T16:22:34.154Z,27.07
2023-02-21T16:23:31.972Z,27.07
2023-02-21T16:24:31.955Z,27.09
2023-02-21T16:25:31.945Z,27.07
2023-02-21T16:26:31.955Z,27.06
2023-02-21T16:27:31.930Z,27.04
2023-02-21T16:28:31.932Z,27.03
2023-02-21T16:29:31.900Z,27.04
2023-02-21T16:30:32.037Z,27.07
2023-02-21T16:31:31.933Z,27.06
2023-02-21T16:32:31.901Z,27.03
2023-02-21T16:33:31.915Z,27.04
2023-02-21T16:34:31.884Z,27.04
2023-02-21T16:35:31.874Z,27.03
2023-02-21T16:36:31.868Z,27.03
2023-02-21T16:37:31.860Z,27.06
2023-02-21T16:38:31.863Z,27.01
2023-02-21T16:39:31.816Z,27.01
2023-02-21T16:40:31.856Z,27.01
2023-02-21T16:41:31.819Z,27.01
2023-02-21T16:42:31.840Z,27.00
2023-02-21T16:43:31.865Z,27.03
2023-02-21T16:44:31.863Z,27.01
2023-02-21T16:45:31.831Z,27.00
2023-02-21T16:46:31.868Z,26.99
2023-02-21T16:47:31.807Z,27.00
2023-02-21T16:48:31.836Z,27.00
2023-02-21T16:49:31.795Z,26.99
2023-02-21T16:50:31.829Z,27.00
2023-02-21T16:51:31.805Z,26.99
2023-02-21T16:52:31.812Z,26.97
2023-02-21T16:53:31.798Z,26.99
2023-02-21T16:54:31.816Z,26.99
2023-02-21T16:55:31.795Z,26.97
2023-02-21T16:56:31.794Z,26.97
2023-02-21T16:57:31.794Z,26.97
2023-02-21T16:58:31.774Z,26.97
2023-02-21T16:59:31.770Z,26.97
2023-02-21T17:00:31.784Z,26.96
2023-02-21T17:01:31.764Z,26.97
2023-02-21T17:02:31.751Z,26.94
2023-02-21T17:03:31.741Z,26.93
2023-02-21T17:04:31.739Z,26.93
2023-02-21T17:05:31.703Z,26.94
2023-02-21T17:06:31.694Z,26.96
2023-02-21T17:07:31.724Z,26.94
2023-02-21T17:08:31.696Z,26.93
2023-02-21T17:09:31.718Z,26.94
2023-02-21T17:10:31.682Z,26.93
2023-02-21T17:11:31.686Z,26.91
2023-02-21T17:12:31.658Z,26.91
2023-02-21T17:13:31.692Z,26.93
2023-02-21T17:14:31.663Z,26.93
2023-02-21T17:15:31.667Z,26.93
2023-02-21T17:16:31.679Z,26.93
2023-02-21T17:17:31.683Z,26.91
2023-02-21T17:18:31.672Z,26.91
2023-02-21T17:19:31.658Z,26.91
2023-02-21T17:20:31.654Z,26.90
2023-02-21T17:21:31.648Z,26.93
2023-02-21T17:22:31.656Z,26.90
2023-02-21T17:23:31.638Z,26.90
2023-02-21T17:24:31.651Z,26.93
2023-02-21T17:25:31.634Z,26.93
2023-02-21T17:26:31.658Z,26.91
2023-02-21T17:27:31.630Z,26.91
2023-02-21T17:28:31.657Z,26.89
2023-02-21T17:29:31.632Z,26.90
2023-02-21T17:30:31.667Z,26.89
2023-02-21T17:31:31.622Z,26.90
2023-02-21T17:32:31.714Z,26.90
2023-02-21T17:33:31.658Z,26.89
2023-02-21T17:34:31.685Z,26.90
2023-02-21T17:35:31.735Z,26.89
2023-02-21T17:36:31.722Z,26.89
2023-02-21T17:37:31.750Z,26.86
2023-02-21T17:38:31.803Z,26.90
2023-02-21T17:39:31.807Z,26.87
2023-02-21T17:40:31.836Z,26.87
2023-02-21T17:41:31.869Z,26.87
2023-02-21T17:42:31.901Z,26.86
2023-02-21T17:43:31.969Z,26.85
2023-02-21T17:44:31.949Z,26.86
2023-02-21T17:45:31.982Z,26.86
2023-02-21T17:46:32.169Z,26.87
2023-02-21T17:47:32.046Z,26.85
2023-02-21T17:48:32.083Z,26.85
2023-02-21T17:49:32.156Z,26.86
2023-02-21T17:50:32.170Z,26.85
2023-02-21T17:51:32.213Z,26.85
2023-02-21T17:52:33.213Z,26.87
2023-02-21T17:53:32.285Z,26.85
2023-02-21T17:54:32.284Z,26.82
2023-02-21T17:55:32.300Z,26.85
2023-02-21T17:56:32.352Z,26.85
2023-02-21T17:57:32.411Z,26.85
2023-02-21T17:58:32.417Z,26.86
2023-02-21T17:59:32.485Z,26.85
2023-02-21T18:00:32.500Z,26.85
2023-02-21T18:01:32.543Z,26.83
2023-02-21T18:02:32.571Z,26.83
2023-02-21T18:03:32.584Z,26.82
2023-02-21T18:04:32.678Z,26.83
2023-02-21T18:05:32.677Z,26.82
2023-02-21T18:06:32.730Z,26.82
2023-02-21T18:07:32.744Z,26.79
2023-02-21T18:08:33.252Z,26.80
2023-02-21T18:09:32.808Z,26.82
2023-02-21T18:10:32.844Z,26.80
2023-02-21T18:11:32.899Z,26.80
2023-02-21T18:12:32.920Z,26.78
2023-02-21T18:13:32.956Z,26.79
2023-02-21T18:14:33.005Z,26.80
2023-02-21T18:15:33.021Z,26.80
2023-02-21T18:16:33.050Z,26.79
2023-02-21T18:17:33.126Z,26.79
2023-02-21T18:18:33.170Z,26.79
2023-02-21T18:19:33.190Z,26.79
2023-02-21T18:20:33.202Z,26.78
2023-02-21T18:21:33.232Z,26.82
2023-02-21T18:22:33.299Z,26.79
2023-02-21T18:23:33.334Z,26.76
2023-02-21T18:24:33.355Z,26.76
2023-02-21T18:25:33.393Z,26.78
2023-02-21T18:26:33.440Z,26.75
2023-02-21T18:27:33.472Z,26.78
2023-02-21T18:28:33.529Z,26.78
2023-02-21T18:29:33.546Z,26.76
2023-02-21T18:30:33.667Z,26.78
2023-02-21T18:31:33.691Z,26.76
2023-02-21T18:32:33.679Z,26.76
2023-02-21T18:33:33.725Z,26.76
2023-02-21T18:34:33.789Z,26.73
2023-02-21T18:35:33.816Z,26.73
2023-02-21T18:36:35.417Z,26.75
2023-02-21T18:37:33.890Z,26.72
2023-02-21T18:38:33.914Z,26.73
2023-02-21T18:39:33.969Z,26.75
2023-02-21T18:40:34.012Z,26.72
2023-02-21T18:41:34.058Z,26.73
2023-02-21T18:42:34.076Z,26.72
2023-02-21T18:43:34.136Z,26.70
2023-02-21T18:44:34.150Z,26.72
2023-02-21T18:45:34.215Z,26.72
2023-02-21T18:46:34.298Z,26.72